Terminal Aerodrome Forecast
Issued by NWS

Current Version | Previous Version | Graphics & Text | Print | Product List | Glossary On
Versions: 1 2 3 4 5 6 7 8 9 10 11 12 13 14 15 16 17 18 19 20 21 22 23
806
FTUS41 KPBZ 161739
TAFMGW
TAF
KMGW 161739Z 1618/1718 00000KT P6SM OVC035
     FM162000 00000KT P6SM OVC020
     FM162200 00000KT P6SM OVC015
     FM170100 14003KT 5SM BR OVC015
     FM170600 16003KT 2SM -RA OVC010=

USA.gov is the U.S. government's official web portal to all federal, state and local government web resources and services.